sensor_id;sensor_type;location;lat;lon;timestamp;temperature;humidity
41447;DHT22;27185;52.040;4.490;2022-12-05T00:01:53;5.80;99.90
41447;DHT22;27185;52.040;4.490;2022-12-05T00:04:38;5.80;99.90
41447;DHT22;27185;52.040;4.490;2022-12-05T00:07:24;5.80;99.90
41447;DHT22;27185;52.040;4.490;2022-12-05T00:10:10;5.80;99.90
41447;DHT22;27185;52.040;4.490;2022-12-05T00:12:55;5.90;99.90
41447;DHT22;27185;52.040;4.490;2022-12-05T00:15:41;5.90;99.90
41447;DHT22;27185;52.040;4.490;2022-12-05T00:18:26;5.90;99.90
41447;DHT22;27185;52.040;4.490;2022-12-05T00:21:16;5.90;99.90
41447;DHT22;27185;52.040;4.490;2022-12-05T00:24:03;6.00;99.90
41447;DHT22;27185;52.040;4.490;2022-12-05T00:26:49;6.00;99.90
41447;DHT22;27185;52.040;4.490;2022-12-05T00:29:35;6.00;99.90
41447;DHT22;27185;52.040;4.490;2022-12-05T00:32:21;6.00;99.90
41447;DHT22;27185;52.040;4.490;2022-12-05T00:35:07;6.00;99.90
41447;DHT22;27185;52.040;4.490;2022-12-05T00:37:52;6.10;99.90
41447;DHT22;27185;52.040;4.490;2022-12-05T00:40:38;6.10;99.90
41447;DHT22;27185;52.040;4.490;2022-12-05T00:43:23;6.10;99.90
41447;DHT22;27185;52.040;4.490;2022-12-05T00:46:11;6.10;99.90
41447;DHT22;27185;52.040;4.490;2022-12-05T00:48:58;6.10;99.90
41447;DHT22;27185;52.040;4.490;2022-12-05T00:51:45;6.10;99.90
41447;DHT22;27185;52.040;4.490;2022-12-05T00:54:30;6.20;99.90
41447;DHT22;27185;52.040;4.490;2022-12-05T00:57:16;6.20;99.90
41447;DHT22;27185;52.040;4.490;2022-12-05T01:00:03;6.20;99.90
41447;DHT22;27185;52.040;4.490;2022-12-05T01:02:49;6.20;99.90
41447;DHT22;27185;52.040;4.490;2022-12-05T01:05:34;6.20;99.90
41447;DHT22;27185;52.040;4.490;2022-12-05T01:08:20;6.20;99.90
41447;DHT22;27185;52.040;4.490;2022-12-05T01:11:06;6.20;99.90
41447;DHT22;27185;52.040;4.490;2022-12-05T01:13:53;6.30;99.90
41447;DHT22;27185;52.040;4.490;2022-12-05T01:16:40;6.20;99.90
41447;DHT22;27185;52.040;4.490;2022-12-05T01:19:28;6.20;99.90
41447;DHT22;27185;52.040;4.490;2022-12-05T01:22:14;6.30;99.90
41447;DHT22;27185;52.040;4.490;2022-12-05T01:25:00;6.30;99.90
41447;DHT22;27185;52.040;4.490;2022-12-05T01:27:46;6.30;99.90
41447;DHT22;27185;52.040;4.490;2022-12-05T01:30:31;6.30;99.90
41447;DHT22;27185;52.040;4.490;2022-12-05T01:33:17;6.30;99.90
41447;DHT22;27185;52.040;4.490;2022-12-05T01:36:03;6.30;99.90
41447;DHT22;27185;52.040;4.490;2022-12-05T01:38:49;6.30;99.90
41447;DHT22;27185;52.040;4.490;2022-12-05T01:41:38;6.30;99.90
41447;DHT22;27185;52.040;4.490;2022-12-05T01:47:09;6.30;99.90
41447;DHT22;27185;52.040;4.490;2022-12-05T01:49:56;6.30;99.90
41447;DHT22;27185;52.040;4.490;2022-12-05T01:52:42;6.30;99.90
41447;DHT22;27185;52.040;4.490;2022-12-05T01:55:28;6.30;99.90
41447;DHT22;27185;52.040;4.490;2022-12-05T01:58:15;6.30;99.90
41447;DHT22;27185;52.040;4.490;2022-12-05T02:01:01;6.30;99.90
41447;DHT22;27185;52.040;4.490;2022-12-05T02:03:49;6.30;99.90
41447;DHT22;27185;52.040;4.490;2022-12-05T02:06:36;6.30;99.90
41447;DHT22;27185;52.040;4.490;2022-12-05T02:09:22;6.30;99.90
41447;DHT22;27185;52.040;4.490;2022-12-05T02:12:07;6.30;99.90
41447;DHT22;27185;52.040;4.490;2022-12-05T02:30:10;6.40;99.90
41447;DHT22;27185;52.040;4.490;2022-12-05T02:33:22;6.30;99.90
41447;DHT22;27185;52.040;4.490;2022-12-05T02:36:26;6.40;99.90
41447;DHT22;27185;52.040;4.490;2022-12-05T02:40:08;6.30;99.90
41447;DHT22;27185;52.040;4.490;2022-12-05T02:42:40;6.40;99.90
41447;DHT22;27185;52.040;4.490;2022-12-05T02:45:29;6.40;99.90
41447;DHT22;27185;52.040;4.490;2022-12-05T02:48:17;6.40;99.90
41447;DHT22;27185;52.040;4.490;2022-12-05T02:51:04;6.40;99.90
41447;DHT22;27185;52.040;4.490;2022-12-05T02:53:53;6.30;99.90
41447;DHT22;27185;52.040;4.490;2022-12-05T02:56:43;6.40;99.90
41447;DHT22;27185;52.040;4.490;2022-12-05T02:59:30;6.40;99.90
41447;DHT22;27185;52.040;4.490;2022-12-05T03:02:46;6.40;99.90
41447;DHT22;27185;52.040;4.490;2022-12-05T03:05:43;6.40;99.90
41447;DHT22;27185;52.040;4.490;2022-12-05T03:09:00;6.40;99.90
41447;DHT22;27185;52.040;4.490;2022-12-05T03:11:51;6.40;99.90
41447;DHT22;27185;52.040;4.490;2022-12-05T03:14:46;6.30;99.90
41447;DHT22;27185;52.040;4.490;2022-12-05T03:17:39;6.30;99.90
41447;DHT22;27185;52.040;4.490;2022-12-05T03:20:30;6.30;99.90
41447;DHT22;27185;52.040;4.490;2022-12-05T03:23:39;6.30;99.90
41447;DHT22;27185;52.040;4.490;2022-12-05T03:26:50;6.40;99.90
41447;DHT22;27185;52.040;4.490;2022-12-05T03:38:38;6.40;99.90
41447;DHT22;27185;52.040;4.490;2022-12-05T03:41:40;6.40;99.90
41447;DHT22;27185;52.040;4.490;2022-12-05T03:44:49;6.40;99.90
41447;DHT22;27185;52.040;4.490;2022-12-05T03:50:30;6.50;99.90
41447;DHT22;27185;52.040;4.490;2022-12-05T03:53:23;6.50;99.90
41447;DHT22;27185;52.040;4.490;2022-12-05T03:56:22;6.50;99.90
41447;DHT22;27185;52.040;4.490;2022-12-05T03:59:24;6.50;99.90
41447;DHT22;27185;52.040;4.490;2022-12-05T04:02:23;6.50;99.90
41447;DHT22;27185;52.040;4.490;2022-12-05T04:11:04;6.50;99.90
41447;DHT22;27185;52.040;4.490;2022-12-05T04:13:54;6.60;99.90
41447;DHT22;27185;52.040;4.490;2022-12-05T04:16:57;6.50;99.90
41447;DHT22;27185;52.040;4.490;2022-12-05T04:19:56;6.60;99.90
41447;DHT22;27185;52.040;4.490;2022-12-05T04:23:02;6.60;99.90
41447;DHT22;27185;52.040;4.490;2022-12-05T04:26:05;6.60;99.90
41447;DHT22;27185;52.040;4.490;2022-12-05T04:29:09;6.60;99.90
41447;DHT22;27185;52.040;4.490;2022-12-05T04:31:58;6.70;99.90
41447;DHT22;27185;52.040;4.490;2022-12-05T04:34:51;6.60;99.90
41447;DHT22;27185;52.040;4.490;2022-12-05T04:37:43;6.70;99.90
41447;DHT22;27185;52.040;4.490;2022-12-05T04:40:43;6.70;99.90
41447;DHT22;27185;52.040;4.490;2022-12-05T04:43:37;6.80;99.90
41447;DHT22;27185;52.040;4.490;2022-12-05T04:46:24;6.80;99.90
41447;DHT22;27185;52.040;4.490;2022-12-05T04:49:15;6.80;99.90
41447;DHT22;27185;52.040;4.490;2022-12-05T04:52:07;6.80;99.90
41447;DHT22;27185;52.040;4.490;2022-12-05T04:55:08;6.80;99.90
41447;DHT22;27185;52.040;4.490;2022-12-05T04:58:17;6.80;99.90
41447;DHT22;27185;52.040;4.490;2022-12-05T05:01:15;6.90;99.90
41447;DHT22;27185;52.040;4.490;2022-12-05T05:04:08;6.90;99.90
41447;DHT22;27185;52.040;4.490;2022-12-05T05:06:55;6.90;99.90
41447;DHT22;27185;52.040;4.490;2022-12-05T05:09:43;6.90;99.90
41447;DHT22;27185;52.040;4.490;2022-12-05T05:12:29;6.90;99.90
41447;DHT22;27185;52.040;4.490;2022-12-05T05:15:14;6.90;99.90
41447;DHT22;27185;52.040;4.490;2022-12-05T05:18:00;6.90;99.90
41447;DHT22;27185;52.040;4.490;2022-12-05T05:20:45;6.90;99.90
41447;DHT22;27185;52.040;4.490;2022-12-05T05:23:31;7.00;99.90
41447;DHT22;27185;52.040;4.490;2022-12-05T05:26:17;7.00;99.90
41447;DHT22;27185;52.040;4.490;2022-12-05T05:29:04;7.00;99.90
41447;DHT22;27185;52.040;4.490;2022-12-05T05:31:49;7.00;99.90
41447;DHT22;27185;52.040;4.490;2022-12-05T05:34:35;7.00;99.90
41447;DHT22;27185;52.040;4.490;2022-12-05T05:37:20;7.00;99.90
41447;DHT22;27185;52.040;4.490;2022-12-05T05:40:08;7.10;99.90
41447;DHT22;27185;52.040;4.490;2022-12-05T05:42:54;7.10;99.90
41447;DHT22;27185;52.040;4.490;2022-12-05T05:45:40;7.10;99.90
41447;DHT22;27185;52.040;4.490;2022-12-05T05:48:25;7.10;99.90
41447;DHT22;27185;52.040;4.490;2022-12-05T05:51:12;7.20;99.90
41447;DHT22;27185;52.040;4.490;2022-12-05T05:53:58;7.20;99.90
41447;DHT22;27185;52.040;4.490;2022-12-05T05:56:44;7.20;99.90
41447;DHT22;27185;52.040;4.490;2022-12-05T05:59:30;7.20;99.90
41447;DHT22;27185;52.040;4.490;2022-12-05T06:02:15;7.20;99.90
41447;DHT22;27185;52.040;4.490;2022-12-05T06:05:01;7.30;99.90
41447;DHT22;27185;52.040;4.490;2022-12-05T06:07:47;7.30;99.90
41447;DHT22;27185;52.040;4.490;2022-12-05T06:10:32;7.30;99.90
41447;DHT22;27185;52.040;4.490;2022-12-05T06:13:18;7.30;99.90
41447;DHT22;27185;52.040;4.490;2022-12-05T06:16:05;7.30;99.90
41447;DHT22;27185;52.040;4.490;2022-12-05T06:18:51;7.40;99.90
41447;DHT22;27185;52.040;4.490;2022-12-05T06:21:37;7.40;99.90
41447;DHT22;27185;52.040;4.490;2022-12-05T06:24:22;7.40;99.90
41447;DHT22;27185;52.040;4.490;2022-12-05T06:27:08;7.40;99.90
41447;DHT22;27185;52.040;4.490;2022-12-05T06:29:54;7.40;99.90
41447;DHT22;27185;52.040;4.490;2022-12-05T06:32:39;7.40;99.90
41447;DHT22;27185;52.040;4.490;2022-12-05T06:35:25;7.50;99.90
41447;DHT22;27185;52.040;4.490;2022-12-05T06:38:10;7.50;99.90
41447;DHT22;27185;52.040;4.490;2022-12-05T06:40:56;7.50;99.90
41447;DHT22;27185;52.040;4.490;2022-12-05T06:43:41;7.50;99.90
41447;DHT22;27185;52.040;4.490;2022-12-05T06:46:27;7.50;99.90
41447;DHT22;27185;52.040;4.490;2022-12-05T06:49:13;7.50;99.90
41447;DHT22;27185;52.040;4.490;2022-12-05T06:51:59;7.50;99.90
41447;DHT22;27185;52.040;4.490;2022-12-05T06:54:44;7.50;99.90
41447;DHT22;27185;52.040;4.490;2022-12-05T06:57:31;7.60;99.90
41447;DHT22;27185;52.040;4.490;2022-12-05T07:00:16;7.60;99.90
41447;DHT22;27185;52.040;4.490;2022-12-05T07:03:20;7.60;99.90
41447;DHT22;27185;52.040;4.490;2022-12-05T07:06:07;7.60;99.90
41447;DHT22;27185;52.040;4.490;2022-12-05T07:08:53;7.60;99.90
41447;DHT22;27185;52.040;4.490;2022-12-05T07:11:39;7.70;99.90
41447;DHT22;27185;52.040;4.490;2022-12-05T07:14:24;7.70;99.90
41447;DHT22;27185;52.040;4.490;2022-12-05T07:17:10;7.70;99.90
41447;DHT22;27185;52.040;4.490;2022-12-05T07:19:56;7.70;99.90
41447;DHT22;27185;52.040;4.490;2022-12-05T07:22:41;7.70;99.90
41447;DHT22;27185;52.040;4.490;2022-12-05T07:25:27;7.80;99.90
41447;DHT22;27185;52.040;4.490;2022-12-05T07:28:13;7.80;99.90
41447;DHT22;27185;52.040;4.490;2022-12-05T07:31:04;7.80;99.90
41447;DHT22;27185;52.040;4.490;2022-12-05T07:33:50;7.80;99.90
41447;DHT22;27185;52.040;4.490;2022-12-05T07:36:35;7.80;99.90
41447;DHT22;27185;52.040;4.490;2022-12-05T07:39:21;7.90;99.90
41447;DHT22;27185;52.040;4.490;2022-12-05T07:42:06;7.90;99.90
41447;DHT22;27185;52.040;4.490;2022-12-05T07:44:52;7.90;99.90
41447;DHT22;27185;52.040;4.490;2022-12-05T07:47:37;7.90;99.90
41447;DHT22;27185;52.040;4.490;2022-12-05T07:50:23;7.90;99.90
41447;DHT22;27185;52.040;4.490;2022-12-05T07:53:08;7.90;99.90
41447;DHT22;27185;52.040;4.490;2022-12-05T07:55:54;7.90;99.90
41447;DHT22;27185;52.040;4.490;2022-12-05T07:58:40;7.90;99.90
41447;DHT22;27185;52.040;4.490;2022-12-05T08:01:29;8.00;99.90
41447;DHT22;27185;52.040;4.490;2022-12-05T08:04:14;7.90;99.90
41447;DHT22;27185;52.040;4.490;2022-12-05T08:07:00;8.00;99.90
41447;DHT22;27185;52.040;4.490;2022-12-05T08:09:45;8.00;99.90
41447;DHT22;27185;52.040;4.490;2022-12-05T08:12:31;8.00;99.90
41447;DHT22;27185;52.040;4.490;2022-12-05T08:15:17;8.00;99.90
41447;DHT22;27185;52.040;4.490;2022-12-05T08:18:02;8.10;99.90
41447;DHT22;27185;52.040;4.490;2022-12-05T08:20:48;8.10;99.90
41447;DHT22;27185;52.040;4.490;2022-12-05T08:23:34;8.10;99.90
41447;DHT22;27185;52.040;4.490;2022-12-05T08:26:23;8.10;99.90
41447;DHT22;27185;52.040;4.490;2022-12-05T08:29:11;8.10;99.90
41447;DHT22;27185;52.040;4.490;2022-12-05T08:31:57;8.10;99.90
41447;DHT22;27185;52.040;4.490;2022-12-05T08:34:43;8.20;99.90
41447;DHT22;27185;52.040;4.490;2022-12-05T08:37:28;8.10;99.90
41447;DHT22;27185;52.040;4.490;2022-12-05T08:40:14;8.10;99.90
41447;DHT22;27185;52.040;4.490;2022-12-05T08:42:59;8.10;99.90
41447;DHT22;27185;52.040;4.490;2022-12-05T08:45:49;8.10;99.90
41447;DHT22;27185;52.040;4.490;2022-12-05T08:48:36;8.10;99.90
41447;DHT22;27185;52.040;4.490;2022-12-05T08:51:21;8.10;99.90
41447;DHT22;27185;52.040;4.490;2022-12-05T08:54:07;8.20;99.90
41447;DHT22;27185;52.040;4.490;2022-12-05T08:56:52;8.20;99.90
41447;DHT22;27185;52.040;4.490;2022-12-05T08:59:38;8.20;99.90
41447;DHT22;27185;52.040;4.490;2022-12-05T09:02:23;8.20;99.90
41447;DHT22;27185;52.040;4.490;2022-12-05T09:05:09;8.20;99.90
41447;DHT22;27185;52.040;4.490;2022-12-05T09:07:55;8.30;99.90
41447;DHT22;27185;52.040;4.490;2022-12-05T09:10:41;8.30;99.90
41447;DHT22;27185;52.040;4.490;2022-12-05T09:13:26;8.30;99.90
41447;DHT22;27185;52.040;4.490;2022-12-05T09:16:18;8.30;99.90
41447;DHT22;27185;52.040;4.490;2022-12-05T09:19:05;8.30;99.90
41447;DHT22;27185;52.040;4.490;2022-12-05T09:21:51;8.30;99.90
41447;DHT22;27185;52.040;4.490;2022-12-05T09:24:36;8.30;99.90
41447;DHT22;27185;52.040;4.490;2022-12-05T09:27:22;8.30;99.90
41447;DHT22;27185;52.040;4.490;2022-12-05T09:30:08;8.40;99.90
41447;DHT22;27185;52.040;4.490;2022-12-05T09:32:54;8.40;99.90
41447;DHT22;27185;52.040;4.490;2022-12-05T09:35:39;8.40;99.90
41447;DHT22;27185;52.040;4.490;2022-12-05T09:38:25;8.40;99.90
41447;DHT22;27185;52.040;4.490;2022-12-05T09:50:58;8.40;99.90
41447;DHT22;27185;52.040;4.490;2022-12-05T09:53:44;8.40;99.90
41447;DHT22;27185;52.040;4.490;2022-12-05T09:56:30;8.40;99.90
41447;DHT22;27185;52.040;4.490;2022-12-05T09:59:16;8.40;99.90
41447;DHT22;27185;52.040;4.490;2022-12-05T10:02:31;8.40;99.90
41447;DHT22;27185;52.040;4.490;2022-12-05T10:05:28;8.40;99.90
41447;DHT22;27185;52.040;4.490;2022-12-05T10:08:24;8.40;99.90
41447;DHT22;27185;52.040;4.490;2022-12-05T10:11:22;8.50;99.90
41447;DHT22;27185;52.040;4.490;2022-12-05T10:14:21;8.40;99.90
41447;DHT22;27185;52.040;4.490;2022-12-05T10:17:36;8.50;99.90
41447;DHT22;27185;52.040;4.490;2022-12-05T10:20:33;8.50;99.90
41447;DHT22;27185;52.040;4.490;2022-12-05T10:23:23;8.50;99.90
41447;DHT22;27185;52.040;4.490;2022-12-05T10:26:11;8.50;99.90
41447;DHT22;27185;52.040;4.490;2022-12-05T10:32:23;8.60;99.90
41447;DHT22;27185;52.040;4.490;2022-12-05T10:35:20;8.60;99.90
41447;DHT22;27185;52.040;4.490;2022-12-05T10:40:58;8.60;99.90
41447;DHT22;27185;52.040;4.490;2022-12-05T10:43:45;8.60;99.90
41447;DHT22;27185;52.040;4.490;2022-12-05T10:46:30;8.60;99.90
41447;DHT22;27185;52.040;4.490;2022-12-05T10:49:17;8.60;99.90
41447;DHT22;27185;52.040;4.490;2022-12-05T10:52:03;8.60;99.90
41447;DHT22;27185;52.040;4.490;2022-12-05T10:55:00;8.60;99.90
41447;DHT22;27185;52.040;4.490;2022-12-05T10:58:09;8.60;99.90
41447;DHT22;27185;52.040;4.490;2022-12-05T11:01:06;8.60;99.90
41447;DHT22;27185;52.040;4.490;2022-12-05T11:04:00;8.70;99.90
41447;DHT22;27185;52.040;4.490;2022-12-05T11:09:43;8.60;99.90
41447;DHT22;27185;52.040;4.490;2022-12-05T11:15:22;8.60;99.90
41447;DHT22;27185;52.040;4.490;2022-12-05T11:18:30;8.60;99.90
41447;DHT22;27185;52.040;4.490;2022-12-05T11:21:17;8.60;99.90
41447;DHT22;27185;52.040;4.490;2022-12-05T11:24:33;8.60;99.90
41447;DHT22;27185;52.040;4.490;2022-12-05T11:27:25;8.60;99.90
41447;DHT22;27185;52.040;4.490;2022-12-05T11:36:17;8.60;99.90
41447;DHT22;27185;52.040;4.490;2022-12-05T11:39:03;8.60;99.90
41447;DHT22;27185;52.040;4.490;2022-12-05T11:41:58;8.60;99.90
41447;DHT22;27185;52.040;4.490;2022-12-05T11:48:19;8.60;99.90
41447;DHT22;27185;52.040;4.490;2022-12-05T11:57:31;8.70;99.90
41447;DHT22;27185;52.040;4.490;2022-12-05T12:00:42;8.70;99.90
41447;DHT22;27185;52.040;4.490;2022-12-05T12:04:12;8.70;99.90
41447;DHT22;27185;52.040;4.490;2022-12-05T12:07:26;8.70;99.90
41447;DHT22;27185;52.040;4.490;2022-12-05T12:25:25;8.90;99.90
41447;DHT22;27185;52.040;4.490;2022-12-05T12:28:41;8.90;99.90
41447;DHT22;27185;52.040;4.490;2022-12-05T12:40:40;8.90;99.90
41447;DHT22;27185;52.040;4.490;2022-12-05T12:46:47;8.90;99.90
41447;DHT22;27185;52.040;4.490;2022-12-05T12:49:49;8.90;99.90
41447;DHT22;27185;52.040;4.490;2022-12-05T13:01:39;9.00;99.90
41447;DHT22;27185;52.040;4.490;2022-12-05T13:04:36;9.00;99.90
41447;DHT22;27185;52.040;4.490;2022-12-05T13:07:48;9.00;99.90
41447;DHT22;27185;52.040;4.490;2022-12-05T13:10:42;9.00;99.90
41447;DHT22;27185;52.040;4.490;2022-12-05T13:13:34;9.10;99.90
41447;DHT22;27185;52.040;4.490;2022-12-05T13:16:31;9.10;99.90
41447;DHT22;27185;52.040;4.490;2022-12-05T13:19:39;9.10;99.90
41447;DHT22;27185;52.040;4.490;2022-12-05T13:22:27;9.10;99.90
41447;DHT22;27185;52.040;4.490;2022-12-05T13:25:18;9.10;99.90
41447;DHT22;27185;52.040;4.490;2022-12-05T13:28:06;9.10;99.90
41447;DHT22;27185;52.040;4.490;2022-12-05T13:30:53;9.10;99.90
41447;DHT22;27185;52.040;4.490;2022-12-05T13:33:47;9.10;99.90
41447;DHT22;27185;52.040;4.490;2022-12-05T13:36:40;9.10;99.90
41447;DHT22;27185;52.040;4.490;2022-12-05T13:39:52;9.10;99.90
41447;DHT22;27185;52.040;4.490;2022-12-05T13:43:01;9.10;99.90
41447;DHT22;27185;52.040;4.490;2022-12-05T13:46:04;9.10;99.90
41447;DHT22;27185;52.040;4.490;2022-12-05T13:49:01;9.10;99.90
41447;DHT22;27185;52.040;4.490;2022-12-05T13:51:48;9.10;99.90
41447;DHT22;27185;52.040;4.490;2022-12-05T13:54:34;9.10;99.90
41447;DHT22;27185;52.040;4.490;2022-12-05T14:00:34;9.20;99.90
41447;DHT22;27185;52.040;4.490;2022-12-05T14:09:29;9.20;99.90
41447;DHT22;27185;52.040;4.490;2022-12-05T14:15:01;9.20;99.90
41447;DHT22;27185;52.040;4.490;2022-12-05T14:17:46;9.20;99.90
41447;DHT22;27185;52.040;4.490;2022-12-05T14:23:45;9.20;99.90
41447;DHT22;27185;52.040;4.490;2022-12-05T14:32:53;9.20;99.90
41447;DHT22;27185;52.040;4.490;2022-12-05T14:35:41;9.20;99.90
41447;DHT22;27185;52.040;4.490;2022-12-05T14:38:32;9.20;99.90
41447;DHT22;27185;52.040;4.490;2022-12-05T14:41:31;9.20;99.90
41447;DHT22;27185;52.040;4.490;2022-12-05T14:44:18;9.20;99.90
41447;DHT22;27185;52.040;4.490;2022-12-05T14:47:06;9.20;99.90
41447;DHT22;27185;52.040;4.490;2022-12-05T14:53:39;9.20;99.90
41447;DHT22;27185;52.040;4.490;2022-12-05T14:56:28;9.10;99.90
41447;DHT22;27185;52.040;4.490;2022-12-05T14:59:25;9.10;99.90
41447;DHT22;27185;52.040;4.490;2022-12-05T15:02:42;9.10;99.90
41447;DHT22;27185;52.040;4.490;2022-12-05T15:05:31;9.10;99.90
41447;DHT22;27185;52.040;4.490;2022-12-05T15:08:18;9.10;99.90
41447;DHT22;27185;52.040;4.490;2022-12-05T15:11:04;9.10;99.90
41447;DHT22;27185;52.040;4.490;2022-12-05T15:13:50;9.10;99.90
41447;DHT22;27185;52.040;4.490;2022-12-05T15:16:40;9.00;99.90
41447;DHT22;27185;52.040;4.490;2022-12-05T15:19:32;9.10;99.90
41447;DHT22;27185;52.040;4.490;2022-12-05T15:22:21;9.10;99.90
41447;DHT22;27185;52.040;4.490;2022-12-05T15:25:30;9.10;99.90
41447;DHT22;27185;52.040;4.490;2022-12-05T15:28:19;9.00;99.90
41447;DHT22;27185;52.040;4.490;2022-12-05T15:31:13;9.00;99.90
41447;DHT22;27185;52.040;4.490;2022-12-05T15:34:22;9.00;99.90
41447;DHT22;27185;52.040;4.490;2022-12-05T15:42:56;9.00;99.90
41447;DHT22;27185;52.040;4.490;2022-12-05T15:45:42;9.00;99.90
41447;DHT22;27185;52.040;4.490;2022-12-05T15:48:27;9.00;99.90
41447;DHT22;27185;52.040;4.490;2022-12-05T15:51:13;9.00;99.90
41447;DHT22;27185;52.040;4.490;2022-12-05T15:54:10;8.90;99.90
41447;DHT22;27185;52.040;4.490;2022-12-05T15:57:09;9.00;99.90
41447;DHT22;27185;52.040;4.490;2022-12-05T16:00:06;8.90;99.90
41447;DHT22;27185;52.040;4.490;2022-12-05T16:03:24;8.90;99.90
41447;DHT22;27185;52.040;4.490;2022-12-05T16:06:33;8.90;99.90
41447;DHT22;27185;52.040;4.490;2022-12-05T16:09:22;8.90;99.90
41447;DHT22;27185;52.040;4.490;2022-12-05T16:12:38;8.80;99.90
41447;DHT22;27185;52.040;4.490;2022-12-05T16:15:25;8.90;99.90
41447;DHT22;27185;52.040;4.490;2022-12-05T16:18:39;8.80;99.90
41447;DHT22;27185;52.040;4.490;2022-12-05T16:21:43;8.90;99.90
41447;DHT22;27185;52.040;4.490;2022-12-05T16:24:30;8.80;99.90
41447;DHT22;27185;52.040;4.490;2022-12-05T16:33:13;8.80;99.90
41447;DHT22;27185;52.040;4.490;2022-12-05T16:36:10;8.80;99.90
41447;DHT22;27185;52.040;4.490;2022-12-05T16:39:12;8.80;99.90
41447;DHT22;27185;52.040;4.490;2022-12-05T16:41:59;8.80;99.90
41447;DHT22;27185;52.040;4.490;2022-12-05T16:50:32;8.80;99.90
41447;DHT22;27185;52.040;4.490;2022-12-05T16:53:31;8.80;99.90
41447;DHT22;27185;52.040;4.490;2022-12-05T16:56:38;8.80;99.90
41447;DHT22;27185;52.040;4.490;2022-12-05T16:59:32;8.80;99.90
41447;DHT22;27185;52.040;4.490;2022-12-05T17:02:18;8.80;99.90
41447;DHT22;27185;52.040;4.490;2022-12-05T17:05:12;8.80;99.90
41447;DHT22;27185;52.040;4.490;2022-12-05T17:07:57;8.80;99.90
41447;DHT22;27185;52.040;4.490;2022-12-05T17:10:43;8.80;99.90
41447;DHT22;27185;52.040;4.490;2022-12-05T17:13:30;8.70;99.90
41447;DHT22;27185;52.040;4.490;2022-12-05T17:16:17;8.70;99.90
41447;DHT22;27185;52.040;4.490;2022-12-05T17:19:03;8.70;99.90
41447;DHT22;27185;52.040;4.490;2022-12-05T17:21:49;8.70;99.90
41447;DHT22;27185;52.040;4.490;2022-12-05T17:24:35;8.70;99.90
41447;DHT22;27185;52.040;4.490;2022-12-05T17:27:24;8.80;99.90
41447;DHT22;27185;52.040;4.490;2022-12-05T17:30:09;8.80;99.90
41447;DHT22;27185;52.040;4.490;2022-12-05T17:32:55;8.80;99.90
41447;DHT22;27185;52.040;4.490;2022-12-05T17:35:44;8.70;99.90
41447;DHT22;27185;52.040;4.490;2022-12-05T17:38:30;8.80;99.90
41447;DHT22;27185;52.040;4.490;2022-12-05T17:41:18;8.80;99.90
41447;DHT22;27185;52.040;4.490;2022-12-05T17:44:04;8.80;99.90
41447;DHT22;27185;52.040;4.490;2022-12-05T17:46:50;8.80;99.90
41447;DHT22;27185;52.040;4.490;2022-12-05T17:49:36;8.80;99.90
41447;DHT22;27185;52.040;4.490;2022-12-05T17:52:21;8.80;99.90
41447;DHT22;27185;52.040;4.490;2022-12-05T17:55:23;8.80;99.90
41447;DHT22;27185;52.040;4.490;2022-12-05T17:58:09;8.90;99.90
41447;DHT22;27185;52.040;4.490;2022-12-05T18:00:55;8.90;99.90
41447;DHT22;27185;52.040;4.490;2022-12-05T18:03:41;8.90;99.90
41447;DHT22;27185;52.040;4.490;2022-12-05T18:06:27;8.80;99.90
41447;DHT22;27185;52.040;4.490;2022-12-05T18:09:13;8.90;99.90
41447;DHT22;27185;52.040;4.490;2022-12-05T18:11:58;8.90;99.90
41447;DHT22;27185;52.040;4.490;2022-12-05T18:14:44;8.90;99.90
41447;DHT22;27185;52.040;4.490;2022-12-05T18:17:30;8.80;99.90
41447;DHT22;27185;52.040;4.490;2022-12-05T18:20:16;8.80;99.90
41447;DHT22;27185;52.040;4.490;2022-12-05T18:23:01;8.80;99.90
41447;DHT22;27185;52.040;4.490;2022-12-05T18:25:58;8.80;99.90
41447;DHT22;27185;52.040;4.490;2022-12-05T18:28:44;8.80;99.90
41447;DHT22;27185;52.040;4.490;2022-12-05T18:31:31;8.80;99.90
41447;DHT22;27185;52.040;4.490;2022-12-05T18:34:17;8.80;99.90
41447;DHT22;27185;52.040;4.490;2022-12-05T18:37:02;8.80;99.90
41447;DHT22;27185;52.040;4.490;2022-12-05T18:39:48;8.80;99.90
41447;DHT22;27185;52.040;4.490;2022-12-05T18:42:34;8.80;99.90
41447;DHT22;27185;52.040;4.490;2022-12-05T18:45:19;8.80;99.90
41447;DHT22;27185;52.040;4.490;2022-12-05T18:48:05;8.80;99.90
41447;DHT22;27185;52.040;4.490;2022-12-05T18:50:51;8.80;99.90
41447;DHT22;27185;52.040;4.490;2022-12-05T18:53:37;8.80;99.90
41447;DHT22;27185;52.040;4.490;2022-12-05T18:56:29;8.80;99.90
41447;DHT22;27185;52.040;4.490;2022-12-05T18:59:18;8.80;99.90
41447;DHT22;27185;52.040;4.490;2022-12-05T19:02:03;8.80;99.90
41447;DHT22;27185;52.040;4.490;2022-12-05T19:04:50;8.90;99.90
41447;DHT22;27185;52.040;4.490;2022-12-05T19:07:35;8.80;99.90
41447;DHT22;27185;52.040;4.490;2022-12-05T19:10:21;8.80;99.90
41447;DHT22;27185;52.040;4.490;2022-12-05T19:13:06;8.80;99.90
41447;DHT22;27185;52.040;4.490;2022-12-05T19:16:00;8.80;99.90
41447;DHT22;27185;52.040;4.490;2022-12-05T19:18:46;8.80;99.90
41447;DHT22;27185;52.040;4.490;2022-12-05T19:21:33;8.80;99.90
41447;DHT22;27185;52.040;4.490;2022-12-05T19:24:19;8.80;99.90
41447;DHT22;27185;52.040;4.490;2022-12-05T19:27:04;8.90;99.90
41447;DHT22;27185;52.040;4.490;2022-12-05T19:29:50;8.90;99.90
41447;DHT22;27185;52.040;4.490;2022-12-05T19:32:36;8.80;99.90
41447;DHT22;27185;52.040;4.490;2022-12-05T19:35:21;8.90;99.90
41447;DHT22;27185;52.040;4.490;2022-12-05T19:38:07;8.90;99.90
41447;DHT22;27185;52.040;4.490;2022-12-05T19:40:56;8.90;99.90
41447;DHT22;27185;52.040;4.490;2022-12-05T19:43:42;8.90;99.90
41447;DHT22;27185;52.040;4.490;2022-12-05T19:46:30;8.90;99.90
41447;DHT22;27185;52.040;4.490;2022-12-05T19:49:17;8.90;99.90
41447;DHT22;27185;52.040;4.490;2022-12-05T19:52:03;9.00;99.90
41447;DHT22;27185;52.040;4.490;2022-12-05T19:54:48;9.00;99.90
41447;DHT22;27185;52.040;4.490;2022-12-05T19:57:34;9.00;99.90
41447;DHT22;27185;52.040;4.490;2022-12-05T20:00:20;9.00;99.90
41447;DHT22;27185;52.040;4.490;2022-12-05T20:03:06;9.00;99.90
41447;DHT22;27185;52.040;4.490;2022-12-05T20:05:56;9.00;99.90
41447;DHT22;27185;52.040;4.490;2022-12-05T20:08:42;9.00;99.90
41447;DHT22;27185;52.040;4.490;2022-12-05T20:11:28;9.00;99.90
41447;DHT22;27185;52.040;4.490;2022-12-05T20:14:14;9.00;99.90
41447;DHT22;27185;52.040;4.490;2022-12-05T20:16:59;9.00;99.90
41447;DHT22;27185;52.040;4.490;2022-12-05T20:19:45;9.00;99.90
41447;DHT22;27185;52.040;4.490;2022-12-05T20:22:30;9.00;99.90
41447;DHT22;27185;52.040;4.490;2022-12-05T20:25:16;9.00;99.90
41447;DHT22;27185;52.040;4.490;2022-12-05T20:28:02;9.00;99.90
41447;DHT22;27185;52.040;4.490;2022-12-05T20:30:50;9.00;99.90
41447;DHT22;27185;52.040;4.490;2022-12-05T20:33:36;9.00;99.90
41447;DHT22;27185;52.040;4.490;2022-12-05T20:36:25;9.00;99.90
41447;DHT22;27185;52.040;4.490;2022-12-05T20:39:16;9.00;99.90
41447;DHT22;27185;52.040;4.490;2022-12-05T20:42:02;9.10;99.90
41447;DHT22;27185;52.040;4.490;2022-12-05T20:44:47;9.00;99.90